sensor_id;sensor_type;location;lat;lon;timestamp;pressure;altitude;pressure_sealevel;temperature;humidity
70445;BME280;57902;49.638;11.070;2022-09-12T00:01:27;98510.69;;;11.71;96.55
70445;BME280;57902;49.638;11.070;2022-09-12T00:03:55;98513.38;;;11.68;96.47
70445;BME280;57902;49.638;11.070;2022-09-12T00:06:28;98499.63;;;11.68;96.80
70445;BME280;57902;49.638;11.070;2022-09-12T00:08:57;98506.59;;;11.66;95.43
70445;BME280;57902;49.638;11.070;2022-09-12T00:11:25;98503.13;;;11.65;95.69
70445;BME280;57902;49.638;11.070;2022-09-12T00:13:55;98499.78;;;11.63;95.40
70445;BME280;57902;49.638;11.070;2022-09-12T00:16:24;98488.56;;;11.63;96.65
70445;BME280;57902;49.638;11.070;2022-09-12T00:18:51;98492.84;;;11.64;97.74
70445;BME280;57902;49.638;11.070;2022-09-12T00:21:20;98504.94;;;11.63;97.83
70445;BME280;57902;49.638;11.070;2022-09-12T00:23:47;98501.47;;;11.63;98.28
70445;BME280;57902;49.638;11.070;2022-09-12T00:26:14;98494.66;;;11.62;97.34
70445;BME280;57902;49.638;11.070;2022-09-12T00:28:41;98494.78;;;11.57;96.41
70445;BME280;57902;49.638;11.070;2022-09-12T00:31:10;98494.88;;;11.54;96.13
70445;BME280;57902;49.638;11.070;2022-09-12T00:33:38;98501.91;;;11.49;95.54
70445;BME280;57902;49.638;11.070;2022-09-12T00:36:07;98506.25;;;11.48;95.81
70445;BME280;57902;49.638;11.070;2022-09-12T00:38:34;98492.47;;;11.48;96.33
70445;BME280;57902;49.638;11.070;2022-09-12T00:41:04;98504.59;;;11.46;96.33
70445;BME280;57902;49.638;11.070;2022-09-12T00:43:40;98497.03;;;11.40;95.59
70445;BME280;57902;49.638;11.070;2022-09-12T00:51:29;98492.97;;;11.31;97.12
70445;BME280;57902;49.638;11.070;2022-09-12T00:53:58;98487.97;;;11.26;97.16
70445;BME280;57902;49.638;11.070;2022-09-12T00:56:26;98488.00;;;11.25;98.46
70445;BME280;57902;49.638;11.070;2022-09-12T00:59:02;98491.47;;;11.24;99.04
70445;BME280;57902;49.638;11.070;2022-09-12T01:01:30;98476.91;;;11.21;99.41
70445;BME280;57902;49.638;11.070;2022-09-12T01:03:58;98482.91;;;11.21;100.00
70445;BME280;57902;49.638;11.070;2022-09-12T01:06:27;98479.53;;;11.19;100.00
70445;BME280;57902;49.638;11.070;2022-09-12T01:08:55;98476.22;;;11.16;100.00
70445;BME280;57902;49.638;11.070;2022-09-12T01:11:22;98475.31;;;11.17;100.00
70445;BME280;57902;49.638;11.070;2022-09-12T01:13:49;98468.47;;;11.16;100.00
70445;BME280;57902;49.638;11.070;2022-09-12T01:16:16;98478.84;;;11.13;100.00
70445;BME280;57902;49.638;11.070;2022-09-12T01:19:10;98469.41;;;11.13;100.00
70445;BME280;57902;49.638;11.070;2022-09-12T01:28:18;98473.78;;;11.10;100.00
70445;BME280;57902;49.638;11.070;2022-09-12T01:31:16;98465.34;;;11.05;100.00
70445;BME280;57902;49.638;11.070;2022-09-12T01:36:33;98461.06;;;11.03;100.00
70445;BME280;57902;49.638;11.070;2022-09-12T01:39:04;98460.19;;;11.05;100.00
70445;BME280;57902;49.638;11.070;2022-09-12T01:41:49;98455.06;;;11.03;100.00
70445;BME280;57902;49.638;11.070;2022-09-12T01:44:36;98460.28;;;11.01;100.00
70445;BME280;57902;49.638;11.070;2022-09-12T01:49:59;98457.84;;;10.97;100.00
70445;BME280;57902;49.638;11.070;2022-09-12T01:53:05;98459.56;;;10.96;100.00
70445;BME280;57902;49.638;11.070;2022-09-12T01:55:30;98454.47;;;10.93;100.00
70445;BME280;57902;49.638;11.070;2022-09-12T01:58:03;98450.19;;;10.92;100.00
70445;BME280;57902;49.638;11.070;2022-09-12T02:00:33;98445.13;;;10.89;100.00
70445;BME280;57902;49.638;11.070;2022-09-12T02:03:23;98447.00;;;10.84;100.00
70445;BME280;57902;49.638;11.070;2022-09-12T02:05:56;98447.09;;;10.81;100.00
70445;BME280;57902;49.638;11.070;2022-09-12T02:08:28;98451.53;;;10.76;100.00
70445;BME280;57902;49.638;11.070;2022-09-12T02:11:00;98448.34;;;10.67;100.00
70445;BME280;57902;49.638;11.070;2022-09-12T02:13:35;98449.25;;;10.65;99.67
70445;BME280;57902;49.638;11.070;2022-09-12T02:16:21;98439.91;;;10.61;100.00
70445;BME280;57902;49.638;11.070;2022-09-12T02:18:52;98442.56;;;10.58;100.00
70445;BME280;57902;49.638;11.070;2022-09-12T02:21:21;98445.09;;;10.59;100.00
70445;BME280;57902;49.638;11.070;2022-09-12T02:23:54;98439.16;;;10.57;100.00
70445;BME280;57902;49.638;11.070;2022-09-12T02:26:33;98446.97;;;10.54;100.00
70445;BME280;57902;49.638;11.070;2022-09-12T02:29:03;98446.94;;;10.56;100.00
70445;BME280;57902;49.638;11.070;2022-09-12T02:31:40;98444.41;;;10.54;100.00
70445;BME280;57902;49.638;11.070;2022-09-12T02:39:34;98418.84;;;10.45;99.49
70445;BME280;57902;49.638;11.070;2022-09-12T02:42:01;98424.09;;;10.42;99.54
70445;BME280;57902;49.638;11.070;2022-09-12T02:44:29;98424.09;;;10.42;100.00
70445;BME280;57902;49.638;11.070;2022-09-12T02:47:08;98426.75;;;10.39;100.00
70445;BME280;57902;49.638;11.070;2022-09-12T02:49:36;98421.44;;;10.45;100.00
70445;BME280;57902;49.638;11.070;2022-09-12T02:52:02;98427.47;;;10.44;100.00
70445;BME280;57902;49.638;11.070;2022-09-12T02:54:29;98424.09;;;10.42;99.54
70445;BME280;57902;49.638;11.070;2022-09-12T02:56:56;98434.53;;;10.37;100.00
70445;BME280;57902;49.638;11.070;2022-09-12T02:59:23;98429.47;;;10.32;100.00
70445;BME280;57902;49.638;11.070;2022-09-12T03:02:13;98437.25;;;10.31;99.17
70445;BME280;57902;49.638;11.070;2022-09-12T03:13:27;98430.72;;;10.18;100.00
70445;BME280;57902;49.638;11.070;2022-09-12T03:19:22;98429.13;;;10.12;100.00
70445;BME280;57902;49.638;11.070;2022-09-12T03:24:34;98425.84;;;10.05;100.00
70445;BME280;57902;49.638;11.070;2022-09-12T03:27:11;98427.69;;;10.02;100.00
70445;BME280;57902;49.638;11.070;2022-09-12T03:29:40;98424.34;;;9.96;100.00
70445;BME280;57902;49.638;11.070;2022-09-12T03:32:08;98423.56;;;9.94;100.00
70445;BME280;57902;49.638;11.070;2022-09-12T03:34:35;98422.78;;;9.91;100.00
70445;BME280;57902;49.638;11.070;2022-09-12T03:37:01;98421.16;;;9.88;100.00
70445;BME280;57902;49.638;11.070;2022-09-12T03:39:28;98427.09;;;9.90;100.00
70445;BME280;57902;49.638;11.070;2022-09-12T03:41:55;98432.19;;;9.92;100.00
70445;BME280;57902;49.638;11.070;2022-09-12T03:44:22;98429.66;;;9.90;100.00
70445;BME280;57902;49.638;11.070;2022-09-12T03:46:49;98435.72;;;9.88;100.00
70445;BME280;57902;49.638;11.070;2022-09-12T03:49:16;98432.28;;;9.89;100.00
70445;BME280;57902;49.638;11.070;2022-09-12T03:51:42;98436.47;;;9.93;100.00
70445;BME280;57902;49.638;11.070;2022-09-12T03:54:09;98437.22;;;9.96;99.89
70445;BME280;57902;49.638;11.070;2022-09-12T03:56:36;98434.69;;;9.95;100.00
70445;BME280;57902;49.638;11.070;2022-09-12T03:59:06;98428.69;;;9.96;100.00
70445;BME280;57902;49.638;11.070;2022-09-12T04:01:32;98426.94;;;9.96;100.00
70445;BME280;57902;49.638;11.070;2022-09-12T04:03:59;98427.84;;;9.95;100.00
70445;BME280;57902;49.638;11.070;2022-09-12T04:06:26;98420.03;;;9.98;100.00
70445;BME280;57902;49.638;11.070;2022-09-12T04:08:53;98420.03;;;9.98;100.00
70445;BME280;57902;49.638;11.070;2022-09-12T04:11:21;98424.28;;;9.99;100.00
70445;BME280;57902;49.638;11.070;2022-09-12T04:13:49;98426.78;;;10.03;100.00
70445;BME280;57902;49.638;11.070;2022-09-12T04:16:17;98432.78;;;10.03;100.00
70445;BME280;57902;49.638;11.070;2022-09-12T04:18:44;98425.91;;;10.04;100.00
70445;BME280;57902;49.638;11.070;2022-09-12T04:21:14;98433.53;;;10.07;100.00
70445;BME280;57902;49.638;11.070;2022-09-12T04:23:41;98430.84;;;10.11;100.00
70445;BME280;57902;49.638;11.070;2022-09-12T04:26:08;98435.16;;;10.11;100.00
70445;BME280;57902;49.638;11.070;2022-09-12T04:28:36;98436.94;;;10.09;100.00
70445;BME280;57902;49.638;11.070;2022-09-12T04:31:05;98439.47;;;10.10;100.00
70445;BME280;57902;49.638;11.070;2022-09-12T04:33:34;98434.28;;;10.12;100.00
70445;BME280;57902;49.638;11.070;2022-09-12T04:36:06;98430.13;;;10.06;100.00
70445;BME280;57902;49.638;11.070;2022-09-12T04:38:34;98426.72;;;10.04;100.00
70445;BME280;57902;49.638;11.070;2022-09-12T04:41:19;98424.16;;;10.04;100.00
70445;BME280;57902;49.638;11.070;2022-09-12T04:43:46;98427.69;;;10.02;100.00
70445;BME280;57902;49.638;11.070;2022-09-12T04:46:16;98429.38;;;10.01;100.00
70445;BME280;57902;49.638;11.070;2022-09-12T04:48:46;98428.56;;;10.01;100.00
70445;BME280;57902;49.638;11.070;2022-09-12T04:51:21;98430.25;;;10.02;100.00
70445;BME280;57902;49.638;11.070;2022-09-12T04:53:50;98428.56;;;10.01;100.00
70445;BME280;57902;49.638;11.070;2022-09-12T04:56:18;98431.13;;;10.01;100.00
70445;BME280;57902;49.638;11.070;2022-09-12T04:58:45;98437.16;;;9.99;100.00
70445;BME280;57902;49.638;11.070;2022-09-12T05:01:14;98436.31;;;9.99;100.00
70445;BME280;57902;49.638;11.070;2022-09-12T05:03:42;98439.81;;;9.96;100.00
70445;BME280;57902;49.638;11.070;2022-09-12T05:06:12;98432.84;;;10.02;100.00
70445;BME280;57902;49.638;11.070;2022-09-12T05:08:40;98437.16;;;9.99;100.00
70445;BME280;57902;49.638;11.070;2022-09-12T05:11:09;98434.69;;;9.95;100.00
70445;BME280;57902;49.638;11.070;2022-09-12T05:13:36;98442.41;;;9.95;100.00
70445;BME280;57902;49.638;11.070;2022-09-12T05:16:05;98440.72;;;9.95;100.00
70445;BME280;57902;49.638;11.070;2022-09-12T05:18:33;98440.72;;;9.94;100.00
70445;BME280;57902;49.638;11.070;2022-09-12T05:21:01;98445.81;;;9.97;100.00
70445;BME280;57902;49.638;11.070;2022-09-12T05:23:28;98454.31;;;10.01;100.00
70445;BME280;57902;49.638;11.070;2022-09-12T05:25:56;98455.94;;;10.05;100.00
70445;BME280;57902;49.638;11.070;2022-09-12T05:28:24;98464.53;;;10.04;100.00
70445;BME280;57902;49.638;11.070;2022-09-12T05:33:28;98457.59;;;10.07;100.00
70445;BME280;57902;49.638;11.070;2022-09-12T05:35:54;98457.47;;;10.12;100.00
70445;BME280;57902;49.638;11.070;2022-09-12T05:38:21;98456.47;;;10.18;100.00
70445;BME280;57902;49.638;11.070;2022-09-12T05:40:50;98458.84;;;10.25;100.00
70445;BME280;57902;49.638;11.070;2022-09-12T05:43:17;98459.50;;;10.35;100.00
70445;BME280;57902;49.638;11.070;2022-09-12T05:45:45;98465.53;;;10.32;100.00
70445;BME280;57902;49.638;11.070;2022-09-12T05:48:11;98465.19;;;10.46;100.00
70445;BME280;57902;49.638;11.070;2022-09-12T05:50:38;98463.41;;;10.50;100.00
70445;BME280;57902;49.638;11.070;2022-09-12T05:53:05;98462.59;;;10.48;100.00
70445;BME280;57902;49.638;11.070;2022-09-12T05:55:31;98462.44;;;10.54;100.00
70445;BME280;57902;49.638;11.070;2022-09-12T05:57:58;98459.91;;;10.51;100.00
70445;BME280;57902;49.638;11.070;2022-09-12T06:00:24;98465.84;;;10.55;100.00
70445;BME280;57902;49.638;11.070;2022-09-12T06:02:55;98469.84;;;10.66;100.00
70445;BME280;57902;49.638;11.070;2022-09-12T06:05:22;98469.50;;;10.79;100.00
70445;BME280;57902;49.638;11.070;2022-09-12T06:07:48;98467.47;;;10.90;100.00
70445;BME280;57902;49.638;11.070;2022-09-12T06:10:14;98471.72;;;10.93;100.00
70445;BME280;57902;49.638;11.070;2022-09-12T06:12:41;98472.34;;;10.99;100.00
70445;BME280;57902;49.638;11.070;2022-09-12T06:15:09;98472.88;;;11.12;100.00
70445;BME280;57902;49.638;11.070;2022-09-12T06:17:35;98478.47;;;11.27;100.00
70445;BME280;57902;49.638;11.070;2022-09-12T06:20:02;98482.53;;;11.35;100.00
70445;BME280;57902;49.638;11.070;2022-09-12T06:22:29;98485.88;;;11.37;100.00
70445;BME280;57902;49.638;11.070;2022-09-12T06:24:56;98486.63;;;11.43;100.00
70445;BME280;57902;49.638;11.070;2022-09-12T06:27:23;98490.72;;;11.50;100.00
70445;BME280;57902;49.638;11.070;2022-09-12T06:29:49;98490.47;;;11.58;100.00
70445;BME280;57902;49.638;11.070;2022-09-12T06:32:16;98480.81;;;11.64;100.00
70445;BME280;57902;49.638;11.070;2022-09-12T06:34:42;98484.78;;;11.75;99.62
70445;BME280;57902;49.638;11.070;2022-09-12T06:37:09;98482.22;;;11.75;100.00
70445;BME280;57902;49.638;11.070;2022-09-12T06:39:35;98481.91;;;11.84;99.95
70445;BME280;57902;49.638;11.070;2022-09-12T06:42:03;98482.84;;;11.81;99.53
70445;BME280;57902;49.638;11.070;2022-09-12T06:44:30;98476.53;;;11.90;99.13
70445;BME280;57902;49.638;11.070;2022-09-12T06:46:56;98479.66;;;12.01;98.29
70445;BME280;57902;49.638;11.070;2022-09-12T06:49:23;98484.75;;;12.04;98.74
70445;BME280;57902;49.638;11.070;2022-09-12T06:51:50;98474.50;;;12.01;98.97
70445;BME280;57902;49.638;11.070;2022-09-12T06:54:16;98469.09;;;12.09;99.39
70445;BME280;57902;49.638;11.070;2022-09-12T06:56:43;98471.47;;;12.15;98.77
70445;BME280;57902;49.638;11.070;2022-09-12T06:59:10;98470.31;;;12.24;98.94
70445;BME280;57902;49.638;11.070;2022-09-12T07:01:36;98475.97;;;12.35;97.98
70445;BME280;57902;49.638;11.070;2022-09-12T07:04:03;98473.88;;;12.47;99.38
70445;BME280;57902;49.638;11.070;2022-09-12T07:06:35;98470.75;;;12.62;97.40
70445;BME280;57902;49.638;11.070;2022-09-12T07:09:04;98468.84;;;12.67;96.20
70445;BME280;57902;49.638;11.070;2022-09-12T07:11:33;98474.47;;;12.78;97.10
70445;BME280;57902;49.638;11.070;2022-09-12T07:14:02;98472.63;;;12.82;96.11
70445;BME280;57902;49.638;11.070;2022-09-12T07:16:29;98471.63;;;12.86;95.92
70445;BME280;57902;49.638;11.070;2022-09-12T07:18:58;98468.69;;;12.95;96.15
70445;BME280;57902;49.638;11.070;2022-09-12T07:21:26;98473.47;;;13.06;96.14
70445;BME280;57902;49.638;11.070;2022-09-12T07:23:52;98478.28;;;13.17;95.50
70445;BME280;57902;49.638;11.070;2022-09-12T07:26:29;98473.38;;;13.33;94.34
70445;BME280;57902;49.638;11.070;2022-09-12T07:28:56;98468.81;;;13.40;95.21
70445;BME280;57902;49.638;11.070;2022-09-12T07:31:43;98474.88;;;13.62;92.86
70445;BME280;57902;49.638;11.070;2022-09-12T07:34:10;98469.06;;;13.56;92.51
70445;BME280;57902;49.638;11.070;2022-09-12T07:36:36;98482.59;;;13.64;92.73
70445;BME280;57902;49.638;11.070;2022-09-12T07:39:04;98476.34;;;13.68;92.76
70445;BME280;57902;49.638;11.070;2022-09-12T07:41:31;98475.34;;;13.72;92.39
70445;BME280;57902;49.638;11.070;2022-09-12T07:44:02;98478.81;;;13.71;92.81
70445;BME280;57902;49.638;11.070;2022-09-12T07:46:30;98479.19;;;13.84;92.82
70445;BME280;57902;49.638;11.070;2022-09-12T07:48:58;98482.09;;;13.98;91.95
70445;BME280;57902;49.638;11.070;2022-09-12T07:51:27;98477.50;;;14.05;90.81
70445;BME280;57902;49.638;11.070;2022-09-12T07:53:54;98475.88;;;14.03;93.06
70445;BME280;57902;49.638;11.070;2022-09-12T07:56:21;98483.31;;;14.10;92.59
70445;BME280;57902;49.638;11.070;2022-09-12T07:58:54;98480.75;;;14.31;91.16
70445;BME280;57902;49.638;11.070;2022-09-12T08:01:22;98487.03;;;14.46;89.93
70445;BME280;57902;49.638;11.070;2022-09-12T08:03:53;98489.44;;;14.50;90.62
70445;BME280;57902;49.638;11.070;2022-09-12T08:06:21;98492.50;;;14.60;90.12
70445;BME280;57902;49.638;11.070;2022-09-12T08:08:53;98491.44;;;14.66;89.94
70445;BME280;57902;49.638;11.070;2022-09-12T08:11:21;98491.28;;;14.69;89.58
70445;BME280;57902;49.638;11.070;2022-09-12T08:13:48;98497.88;;;14.97;88.23
70445;BME280;57902;49.638;11.070;2022-09-12T08:16:22;98494.63;;;14.92;89.06
70445;BME280;57902;49.638;11.070;2022-09-12T08:18:49;98495.25;;;15.17;87.79
70445;BME280;57902;49.638;11.070;2022-09-12T08:21:20;98497.63;;;15.22;88.70
70445;BME280;57902;49.638;11.070;2022-09-12T08:23:51;98498.53;;;15.40;87.91
70445;BME280;57902;49.638;11.070;2022-09-12T08:26:19;98490.34;;;15.49;87.19
70445;BME280;57902;49.638;11.070;2022-09-12T08:28:46;98500.00;;;15.65;86.60
70445;BME280;57902;49.638;11.070;2022-09-12T08:31:15;98490.31;;;15.68;86.74
70445;BME280;57902;49.638;11.070;2022-09-12T08:33:42;98498.53;;;15.78;85.82
70445;BME280;57902;49.638;11.070;2022-09-12T08:36:14;98502.41;;;16.06;84.42
70445;BME280;57902;49.638;11.070;2022-09-12T08:38:42;98497.69;;;16.14;84.60
70445;BME280;57902;49.638;11.070;2022-09-12T08:41:32;98496.56;;;16.20;83.49
70445;BME280;57902;49.638;11.070;2022-09-12T08:55:04;98475.91;;;18.59;73.54
70445;BME280;57902;49.638;11.070;2022-09-12T08:57:32;98484.25;;;19.65;70.42
70445;BME280;57902;49.638;11.070;2022-09-12T09:00:01;98481.69;;;20.05;67.82
70445;BME280;57902;49.638;11.070;2022-09-12T09:08:00;98474.69;;;21.47;63.25
70445;BME280;57902;49.638;11.070;2022-09-12T09:13:32;98464.41;;;22.06;62.27
70445;BME280;57902;49.638;11.070;2022-09-12T09:16:45;98470.44;;;22.88;58.45
70445;BME280;57902;49.638;11.070;2022-09-12T09:19:20;98475.34;;;22.82;58.90
70445;BME280;57902;49.638;11.070;2022-09-12T09:22:05;98471.88;;;22.93;59.75
70445;BME280;57902;49.638;11.070;2022-09-12T09:24:52;98474.63;;;22.91;59.75
70445;BME280;57902;49.638;11.070;2022-09-12T09:27:31;98479.16;;;22.66;60.20
70445;BME280;57902;49.638;11.070;2022-09-12T09:30:15;98474.72;;;22.56;60.59
70445;BME280;57902;49.638;11.070;2022-09-12T09:32:44;98474.63;;;22.68;60.09
70445;BME280;57902;49.638;11.070;2022-09-12T09:35:21;98468.84;;;22.52;59.79
70445;BME280;57902;49.638;11.070;2022-09-12T09:38:00;98474.59;;;22.22;60.37
70445;BME280;57902;49.638;11.070;2022-09-12T09:43:28;98456.47;;;21.94;61.08
70445;BME280;57902;49.638;11.070;2022-09-12T09:45:56;98456.75;;;22.02;61.70
70445;BME280;57902;49.638;11.070;2022-09-12T09:48:30;98453.78;;;22.07;61.63
70445;BME280;57902;49.638;11.070;2022-09-12T09:51:02;98451.34;;;21.93;62.11
70445;BME280;57902;49.638;11.070;2022-09-12T09:53:50;98448.72;;;21.93;60.73
70445;BME280;57902;49.638;11.070;2022-09-12T09:58:53;98440.66;;;21.72;62.46
70445;BME280;57902;49.638;11.070;2022-09-12T10:01:20;98441.03;;;21.78;61.46
70445;BME280;57902;49.638;11.070;2022-09-12T10:03:52;98433.03;;;21.80;63.62
70445;BME280;57902;49.638;11.070;2022-09-12T10:08:47;98431.50;;;22.24;59.11
70445;BME280;57902;49.638;11.070;2022-09-12T10:14:02;98425.97;;;22.40;57.96
70445;BME280;57902;49.638;11.070;2022-09-12T10:16:47;98432.78;;;22.43;57.73
70445;BME280;57902;49.638;11.070;2022-09-12T10:19:22;98429.31;;;22.42;57.20
70445;BME280;57902;49.638;11.070;2022-09-12T10:21:51;98421.69;;;22.39;57.69
70445;BME280;57902;49.638;11.070;2022-09-12T10:24:25;98431.94;;;22.53;55.59
70445;BME280;57902;49.638;11.070;2022-09-12T10:26:57;98429.94;;;22.57;55.84
70445;BME280;57902;49.638;11.070;2022-09-12T10:29:33;98431.72;;;22.57;55.07
70445;BME280;57902;49.638;11.070;2022-09-12T10:32:05;98424.31;;;22.62;55.29
70445;BME280;57902;49.638;11.070;2022-09-12T10:34:37;98425.38;;;22.59;56.59
70445;BME280;57902;49.638;11.070;2022-09-12T10:37:08;98425.78;;;22.66;55.08
70445;BME280;57902;49.638;11.070;2022-09-12T10:39:37;98422.44;;;22.86;52.47
70445;BME280;57902;49.638;11.070;2022-09-12T10:42:04;98423.38;;;22.97;53.29
70445;BME280;57902;49.638;11.070;2022-09-12T10:44:33;98424.44;;;23.05;53.72
70445;BME280;57902;49.638;11.070;2022-09-12T10:47:19;98416.81;;;23.02;53.30
70445;BME280;57902;49.638;11.070;2022-09-12T10:49:45;98423.88;;;22.91;52.61
70445;BME280;57902;49.638;11.070;2022-09-12T10:52:19;98417.28;;;22.85;53.56
70445;BME280;57902;49.638;11.070;2022-09-12T10:54:46;98413.34;;;22.79;53.09
70445;BME280;57902;49.638;11.070;2022-09-12T10:57:27;98411.91;;;22.75;51.86
70445;BME280;57902;49.638;11.070;2022-09-12T11:00:12;98403.91;;;22.77;52.16
70445;BME280;57902;49.638;11.070;2022-09-12T11:05:59;98412.28;;;23.16;51.19
70445;BME280;57902;49.638;11.070;2022-09-12T11:16:51;98403.75;;;23.23;48.38
70445;BME280;57902;49.638;11.070;2022-09-12T11:22:25;98398.50;;;23.23;48.65
70445;BME280;57902;49.638;11.070;2022-09-12T11:27:52;98377.47;;;23.12;50.38
70445;BME280;57902;49.638;11.070;2022-09-12T11:30:22;98380.47;;;22.96;50.05
70445;BME280;57902;49.638;11.070;2022-09-12T11:32:51;98393.50;;;22.86;51.11
70445;BME280;57902;49.638;11.070;2022-09-12T11:35:30;98386.56;;;22.85;51.25
70445;BME280;57902;49.638;11.070;2022-09-12T11:43:36;98382.88;;;23.11;49.54
70445;BME280;57902;49.638;11.070;2022-09-12T11:46:20;98378.66;;;23.19;48.97
70445;BME280;57902;49.638;11.070;2022-09-12T11:48:57;98370.38;;;23.35;46.93
70445;BME280;57902;49.638;11.070;2022-09-12T11:51:43;98372.69;;;23.17;47.72
70445;BME280;57902;49.638;11.070;2022-09-12T11:54:31;98376.75;;;23.21;47.51
70445;BME280;57902;49.638;11.070;2022-09-12T11:57:09;98371.50;;;23.21;48.61
70445;BME280;57902;49.638;11.070;2022-09-12T11:59:49;98370.19;;;23.16;48.17
70445;BME280;57902;49.638;11.070;2022-09-12T12:02:29;98370.91;;;22.95;49.26
70445;BME280;57902;49.638;11.070;2022-09-12T12:07:50;98372.22;;;23.23;46.85
70445;BME280;57902;49.638;11.070;2022-09-12T12:10:23;98371.13;;;23.03;47.93
70445;BME280;57902;49.638;11.070;2022-09-12T12:12:51;98368.88;;;22.99;46.88
70445;BME280;57902;49.638;11.070;2022-09-12T12:15:19;98368.41;;;22.94;48.76
70445;BME280;57902;49.638;11.070;2022-09-12T12:18:02;98358.84;;;22.93;48.70
70445;BME280;57902;49.638;11.070;2022-09-12T12:20:29;98353.13;;;23.10;47.30
70445;BME280;57902;49.638;11.070;2022-09-12T12:22:56;98355.03;;;22.85;48.25
70445;BME280;57902;49.638;11.070;2022-09-12T12:25:36;98356.13;;;22.71;48.39
70445;BME280;57902;49.638;11.070;2022-09-12T12:28:03;98349.78;;;22.97;48.23
70445;BME280;57902;49.638;11.070;2022-09-12T12:32:59;98342.25;;;22.92;48.56
70445;BME280;57902;49.638;11.070;2022-09-12T12:35:42;98342.13;;;22.82;48.29
70445;BME280;57902;49.638;11.070;2022-09-12T12:38:38;98334.56;;;23.00;48.37
70445;BME280;57902;49.638;11.070;2022-09-12T12:43:51;98328.56;;;23.21;47.10
70445;BME280;57902;49.638;11.070;2022-09-12T12:46:23;98331.31;;;23.31;46.89
70445;BME280;57902;49.638;11.070;2022-09-12T12:51:28;98331.00;;;23.13;47.75
70445;BME280;57902;49.638;11.070;2022-09-12T12:53:58;98324.41;;;23.18;47.59
70445;BME280;57902;49.638;11.070;2022-09-12T12:56:34;98321.19;;;23.15;48.11
70445;BME280;57902;49.638;11.070;2022-09-12T12:59:14;98319.25;;;23.17;47.06
70445;BME280;57902;49.638;11.070;2022-09-12T13:01:46;98324.53;;;23.05;48.38
70445;BME280;57902;49.638;11.070;2022-09-12T13:04:22;98323.84;;;22.92;48.71
70445;BME280;57902;49.638;11.070;2022-09-12T13:07:00;98320.00;;;22.96;48.30
70445;BME280;57902;49.638;11.070;2022-09-12T13:09:42;98316.28;;;23.21;47.68
70445;BME280;57902;49.638;11.070;2022-09-12T13:12:19;98313.84;;;23.30;47.16
70445;BME280;57902;49.638;11.070;2022-09-12T13:14:54;98316.34;;;23.31;47.23
70445;BME280;57902;49.638;11.070;2022-09-12T13:17:29;98312.06;;;23.30;48.17
70445;BME280;57902;49.638;11.070;2022-09-12T13:20:07;98305.03;;;23.19;47.52
70445;BME280;57902;49.638;11.070;2022-09-12T13:22:54;98303.16;;;23.10;48.71
70445;BME280;57902;49.638;11.070;2022-09-12T13:25:25;98297.41;;;23.16;47.27
70445;BME280;57902;49.638;11.070;2022-09-12T13:28:15;98288.38;;;23.30;46.90
70445;BME280;57902;49.638;11.070;2022-09-12T13:38:36;98281.19;;;23.32;46.50
70445;BME280;57902;49.638;11.070;2022-09-12T13:41:38;98277.16;;;23.28;47.56
70445;BME280;57902;49.638;11.070;2022-09-12T13:44:11;98281.63;;;23.16;47.75
70445;BME280;57902;49.638;11.070;2022-09-12T13:46:40;98274.78;;;23.25;46.33
70445;BME280;57902;49.638;11.070;2022-09-12T13:49:31;98272.78;;;23.17;46.50
70445;BME280;57902;49.638;11.070;2022-09-12T13:52:02;98272.03;;;23.15;46.25
70445;BME280;57902;49.638;11.070;2022-09-12T13:54:30;98275.22;;;22.98;47.04
70445;BME280;57902;49.638;11.070;2022-09-12T13:56:58;98269.34;;;22.94;44.99
70445;BME280;57902;49.638;11.070;2022-09-12T13:59:25;98271.66;;;22.87;47.39
70445;BME280;57902;49.638;11.070;2022-09-12T14:01:52;98272.09;;;22.93;46.74
70445;BME280;57902;49.638;11.070;2022-09-12T14:04:21;98271.44;;;22.79;47.33
70445;BME280;57902;49.638;11.070;2022-09-12T14:07:16;98267.72;;;22.82;47.89
70445;BME280;57902;49.638;11.070;2022-09-12T14:09:53;98264.28;;;22.70;53.88
70445;BME280;57902;49.638;11.070;2022-09-12T14:12:36;98263.69;;;22.55;50.18
70445;BME280;57902;49.638;11.070;2022-09-12T14:15:20;98267.88;;;22.46;51.40
70445;BME280;57902;49.638;11.070;2022-09-12T14:17:52;98269.09;;;22.42;50.35
70445;BME280;57902;49.638;11.070;2022-09-12T14:20:21;98258.31;;;22.23;50.32
70445;BME280;57902;49.638;11.070;2022-09-12T14:22:52;98260.94;;;22.00;52.48
70445;BME280;57902;49.638;11.070;2022-09-12T14:25:22;98263.34;;;22.03;51.29
70445;BME280;57902;49.638;11.070;2022-09-12T14:27:52;98254.50;;;21.93;51.35
70445;BME280;57902;49.638;11.070;2022-09-12T14:30:28;98249.63;;;21.99;50.14
70445;BME280;57902;49.638;11.070;2022-09-12T14:33:15;98247.81;;;21.89;55.29
70445;BME280;57902;49.638;11.070;2022-09-12T14:35:48;98245.44;;;21.85;52.00
70445;BME280;57902;49.638;11.070;2022-09-12T14:41:07;98238.38;;;21.75;53.16
70445;BME280;57902;49.638;11.070;2022-09-12T14:43:44;98235.25;;;21.70;52.23
70445;BME280;57902;49.638;11.070;2022-09-12T14:46:32;98241.38;;;21.70;52.62
70445;BME280;57902;49.638;11.070;2022-09-12T14:49:15;98238.59;;;21.60;52.56
70445;BME280;57902;49.638;11.070;2022-09-12T14:52:15;98234.69;;;21.89;50.06
70445;BME280;57902;49.638;11.070;2022-09-12T14:55:01;98232.03;;;21.77;51.58
70445;BME280;57902;49.638;11.070;2022-09-12T14:57:37;98233.03;;;21.76;51.27
70445;BME280;57902;49.638;11.070;2022-09-12T15:00:15;98236.59;;;21.75;51.24
70445;BME280;57902;49.638;11.070;2022-09-12T15:02:43;98230.63;;;21.73;51.49
70445;BME280;57902;49.638;11.070;2022-09-12T15:10:33;98220.25;;;21.72;52.06
70445;BME280;57902;49.638;11.070;2022-09-12T15:15:30;98217.28;;;21.76;51.42